sensor_id;sensor_type;location;lat;lon;timestamp;P1;durP1;ratioP1;P2;durP2;ratioP2
82873;SDS011;72647;51.622;7.540;2023-09-12T00:01:51;4.37;;;2.10;;
82873;SDS011;72647;51.622;7.540;2023-09-12T00:03:51;4.13;;;2.00;;
82873;SDS011;72647;51.622;7.540;2023-09-12T00:05:56;3.53;;;1.90;;
82873;SDS011;72647;51.622;7.540;2023-09-12T00:07:56;3.05;;;2.13;;
82873;SDS011;72647;51.622;7.540;2023-09-12T00:09:57;2.95;;;2.15;;
82873;SDS011;72647;51.622;7.540;2023-09-12T00:11:58;2.88;;;2.15;;
82873;SDS011;72647;51.622;7.540;2023-09-12T00:13:58;4.37;;;2.50;;
82873;SDS011;72647;51.622;7.540;2023-09-12T00:15:59;7.03;;;2.60;;
82873;SDS011;72647;51.622;7.540;2023-09-12T00:17:59;4.70;;;2.15;;
82873;SDS011;72647;51.622;7.540;2023-09-12T00:19:59;3.53;;;2.43;;
82873;SDS011;72647;51.622;7.540;2023-09-12T00:22:00;4.50;;;2.57;;
82873;SDS011;72647;51.622;7.540;2023-09-12T00:24:00;4.45;;;3.10;;
82873;SDS011;72647;51.622;7.540;2023-09-12T00:26:00;4.88;;;2.80;;
82873;SDS011;72647;51.622;7.540;2023-09-12T00:28:01;5.22;;;2.95;;
82873;SDS011;72647;51.622;7.540;2023-09-12T00:30:01;3.53;;;2.87;;
82873;SDS011;72647;51.622;7.540;2023-09-12T00:34:01;5.47;;;3.05;;
82873;SDS011;72647;51.622;7.540;2023-09-12T00:36:02;6.50;;;3.80;;
82873;SDS011;72647;51.622;7.540;2023-09-12T00:38:02;5.57;;;3.50;;
82873;SDS011;72647;51.622;7.540;2023-09-12T00:42:03;6.63;;;2.87;;
82873;SDS011;72647;51.622;7.540;2023-09-12T00:44:03;4.07;;;3.35;;
82873;SDS011;72647;51.622;7.540;2023-09-12T00:46:04;6.90;;;3.47;;
82873;SDS011;72647;51.622;7.540;2023-09-12T00:50:04;4.87;;;3.23;;
82873;SDS011;72647;51.622;7.540;2023-09-12T00:54:05;4.43;;;3.23;;
82873;SDS011;72647;51.622;7.540;2023-09-12T00:56:05;4.45;;;3.20;;
82873;SDS011;72647;51.622;7.540;2023-09-12T01:00:07;7.50;;;3.42;;
82873;SDS011;72647;51.622;7.540;2023-09-12T01:02:15;7.22;;;3.72;;
82873;SDS011;72647;51.622;7.540;2023-09-12T01:04:16;5.13;;;3.45;;
82873;SDS011;72647;51.622;7.540;2023-09-12T01:06:17;9.23;;;3.92;;
82873;SDS011;72647;51.622;7.540;2023-09-12T01:08:19;6.07;;;3.95;;
82873;SDS011;72647;51.622;7.540;2023-09-12T01:10:20;5.78;;;3.72;;
82873;SDS011;72647;51.622;7.540;2023-09-12T01:12:20;6.10;;;4.07;;
82873;SDS011;72647;51.622;7.540;2023-09-12T01:14:21;7.90;;;4.55;;
82873;SDS011;72647;51.622;7.540;2023-09-12T01:16:23;6.13;;;4.38;;
82873;SDS011;72647;51.622;7.540;2023-09-12T01:18:23;9.05;;;4.07;;
82873;SDS011;72647;51.622;7.540;2023-09-12T01:20:24;5.90;;;4.30;;
82873;SDS011;72647;51.622;7.540;2023-09-12T01:29:19;9.32;;;6.20;;
82873;SDS011;72647;51.622;7.540;2023-09-12T01:31:22;8.25;;;5.75;;
82873;SDS011;72647;51.622;7.540;2023-09-12T01:33:23;10.00;;;7.00;;
82873;SDS011;72647;51.622;7.540;2023-09-12T01:35:24;10.80;;;7.10;;
82873;SDS011;72647;51.622;7.540;2023-09-12T01:37:24;11.32;;;7.30;;
82873;SDS011;72647;51.622;7.540;2023-09-12T01:39:24;13.17;;;8.30;;
82873;SDS011;72647;51.622;7.540;2023-09-12T01:41:24;15.43;;;8.57;;
82873;SDS011;72647;51.622;7.540;2023-09-12T01:43:25;11.45;;;8.02;;
82873;SDS011;72647;51.622;7.540;2023-09-12T01:45:26;15.63;;;9.15;;
82873;SDS011;72647;51.622;7.540;2023-09-12T01:47:27;10.35;;;7.53;;
82873;SDS011;72647;51.622;7.540;2023-09-12T01:49:28;14.02;;;8.43;;
82873;SDS011;72647;51.622;7.540;2023-09-12T01:51:29;12.85;;;8.60;;
82873;SDS011;72647;51.622;7.540;2023-09-12T01:53:29;12.52;;;8.23;;
82873;SDS011;72647;51.622;7.540;2023-09-12T01:57:32;11.70;;;7.60;;
82873;SDS011;72647;51.622;7.540;2023-09-12T01:59:33;12.85;;;8.77;;
82873;SDS011;72647;51.622;7.540;2023-09-12T02:01:33;14.50;;;8.32;;
82873;SDS011;72647;51.622;7.540;2023-09-12T02:03:33;13.73;;;8.67;;
82873;SDS011;72647;51.622;7.540;2023-09-12T02:05:33;13.83;;;9.33;;
82873;SDS011;72647;51.622;7.540;2023-09-12T02:09:34;18.90;;;8.93;;
82873;SDS011;72647;51.622;7.540;2023-09-12T02:11:34;20.37;;;9.77;;
82873;SDS011;72647;51.622;7.540;2023-09-12T02:15:35;14.90;;;9.47;;
82873;SDS011;72647;51.622;7.540;2023-09-12T02:17:35;19.73;;;11.27;;
82873;SDS011;72647;51.622;7.540;2023-09-12T02:21:38;19.17;;;11.73;;
82873;SDS011;72647;51.622;7.540;2023-09-12T02:23:38;19.70;;;12.13;;
82873;SDS011;72647;51.622;7.540;2023-09-12T02:27:39;20.88;;;10.95;;
82873;SDS011;72647;51.622;7.540;2023-09-12T02:29:39;17.75;;;11.18;;
82873;SDS011;72647;51.622;7.540;2023-09-12T02:33:40;19.20;;;11.00;;
82873;SDS011;72647;51.622;7.540;2023-09-12T02:35:40;17.20;;;10.60;;
82873;SDS011;72647;51.622;7.540;2023-09-12T02:39:40;17.33;;;10.40;;
82873;SDS011;72647;51.622;7.540;2023-09-12T02:43:41;20.47;;;11.97;;
82873;SDS011;72647;51.622;7.540;2023-09-12T02:47:43;21.80;;;12.77;;
82873;SDS011;72647;51.622;7.540;2023-09-12T02:49:45;20.00;;;12.80;;
82873;SDS011;72647;51.622;7.540;2023-09-12T02:53:48;22.23;;;12.63;;
82873;SDS011;72647;51.622;7.540;2023-09-12T02:57:49;23.17;;;12.43;;
82873;SDS011;72647;51.622;7.540;2023-09-12T03:01:51;20.47;;;11.83;;
82873;SDS011;72647;51.622;7.540;2023-09-12T03:03:52;26.80;;;14.55;;
82873;SDS011;72647;51.622;7.540;2023-09-12T03:05:58;23.90;;;14.45;;
82873;SDS011;72647;51.622;7.540;2023-09-12T03:07:59;23.33;;;13.68;;
82873;SDS011;72647;51.622;7.540;2023-09-12T03:12:04;24.00;;;13.55;;
82873;SDS011;72647;51.622;7.540;2023-09-12T03:14:05;26.35;;;13.90;;
82873;SDS011;72647;51.622;7.540;2023-09-12T03:16:09;25.97;;;14.17;;
82873;SDS011;72647;51.622;7.540;2023-09-12T03:18:14;24.60;;;13.55;;
82873;SDS011;72647;51.622;7.540;2023-09-12T03:20:16;27.42;;;14.52;;
82873;SDS011;72647;51.622;7.540;2023-09-12T03:22:17;25.33;;;15.00;;
82873;SDS011;72647;51.622;7.540;2023-09-12T03:24:17;24.85;;;14.60;;
82873;SDS011;72647;51.622;7.540;2023-09-12T03:26:20;25.52;;;15.05;;
82873;SDS011;72647;51.622;7.540;2023-09-12T03:28:22;25.88;;;14.15;;
82873;SDS011;72647;51.622;7.540;2023-09-12T03:30:23;25.33;;;15.00;;
82873;SDS011;72647;51.622;7.540;2023-09-12T03:32:24;22.23;;;14.63;;
82873;SDS011;72647;51.622;7.540;2023-09-12T03:34:24;24.92;;;14.18;;
82873;SDS011;72647;51.622;7.540;2023-09-12T03:36:35;23.45;;;14.70;;
82873;SDS011;72647;51.622;7.540;2023-09-12T03:38:36;22.55;;;13.77;;
82873;SDS011;72647;51.622;7.540;2023-09-12T03:40:37;25.25;;;14.07;;
82873;SDS011;72647;51.622;7.540;2023-09-12T03:42:37;21.63;;;13.35;;
82873;SDS011;72647;51.622;7.540;2023-09-12T03:44:39;29.85;;;16.02;;
82873;SDS011;72647;51.622;7.540;2023-09-12T03:46:42;32.47;;;16.08;;
82873;SDS011;72647;51.622;7.540;2023-09-12T03:48:42;29.63;;;15.15;;
82873;SDS011;72647;51.622;7.540;2023-09-12T03:50:48;32.38;;;16.27;;
82873;SDS011;72647;51.622;7.540;2023-09-12T03:52:48;34.10;;;16.90;;
82873;SDS011;72647;51.622;7.540;2023-09-12T03:54:51;40.17;;;17.10;;
82873;SDS011;72647;51.622;7.540;2023-09-12T03:56:51;46.28;;;19.23;;
82873;SDS011;72647;51.622;7.540;2023-09-12T03:58:53;42.70;;;19.70;;
82873;SDS011;72647;51.622;7.540;2023-09-12T04:00:58;37.40;;;18.23;;
82873;SDS011;72647;51.622;7.540;2023-09-12T04:02:59;46.88;;;19.55;;
82873;SDS011;72647;51.622;7.540;2023-09-12T04:05:03;55.67;;;20.87;;
82873;SDS011;72647;51.622;7.540;2023-09-12T04:07:03;49.53;;;21.23;;
82873;SDS011;72647;51.622;7.540;2023-09-12T04:09:04;33.45;;;16.25;;
82873;SDS011;72647;51.622;7.540;2023-09-12T04:13:04;35.37;;;15.53;;
82873;SDS011;72647;51.622;7.540;2023-09-12T04:17:05;40.43;;;18.30;;
82873;SDS011;72647;51.622;7.540;2023-09-12T04:21:05;39.50;;;17.97;;
82873;SDS011;72647;51.622;7.540;2023-09-12T04:25:06;36.13;;;17.63;;
82873;SDS011;72647;51.622;7.540;2023-09-12T04:29:08;40.05;;;17.75;;
82873;SDS011;72647;51.622;7.540;2023-09-12T04:33:10;47.53;;;20.50;;
82873;SDS011;72647;51.622;7.540;2023-09-12T04:35:10;41.60;;;20.67;;
82873;SDS011;72647;51.622;7.540;2023-09-12T04:39:11;42.45;;;18.48;;
82873;SDS011;72647;51.622;7.540;2023-09-12T04:43:14;37.50;;;17.60;;
82873;SDS011;72647;51.622;7.540;2023-09-12T04:47:15;38.23;;;18.27;;
82873;SDS011;72647;51.622;7.540;2023-09-12T04:49:17;43.20;;;19.08;;
82873;SDS011;72647;51.622;7.540;2023-09-12T04:51:17;33.45;;;17.67;;
82873;SDS011;72647;51.622;7.540;2023-09-12T04:55:18;47.67;;;19.37;;
82873;SDS011;72647;51.622;7.540;2023-09-12T04:59:18;44.63;;;18.67;;
82873;SDS011;72647;51.622;7.540;2023-09-12T05:03:18;50.03;;;21.13;;
82873;SDS011;72647;51.622;7.540;2023-09-12T05:07:19;53.30;;;21.53;;
82873;SDS011;72647;51.622;7.540;2023-09-12T05:11:21;67.63;;;22.60;;
82873;SDS011;72647;51.622;7.540;2023-09-12T05:13:22;75.20;;;24.92;;
82873;SDS011;72647;51.622;7.540;2023-09-12T05:17:22;54.13;;;21.67;;
82873;SDS011;72647;51.622;7.540;2023-09-12T05:21:24;67.60;;;23.63;;
82873;SDS011;72647;51.622;7.540;2023-09-12T05:25:24;67.03;;;22.37;;
82873;SDS011;72647;51.622;7.540;2023-09-12T05:27:26;69.15;;;24.17;;
82873;SDS011;72647;51.622;7.540;2023-09-12T05:29:27;51.57;;;22.20;;
82873;SDS011;72647;51.622;7.540;2023-09-12T05:33:27;48.13;;;21.17;;
82873;SDS011;72647;51.622;7.540;2023-09-12T05:37:29;42.57;;;19.63;;
82873;SDS011;72647;51.622;7.540;2023-09-12T05:39:29;41.47;;;20.38;;
82873;SDS011;72647;51.622;7.540;2023-09-12T05:43:29;46.03;;;19.90;;
82873;SDS011;72647;51.622;7.540;2023-09-12T05:47:32;46.80;;;19.48;;
82873;SDS011;72647;51.622;7.540;2023-09-12T05:51:34;39.20;;;18.33;;
82873;SDS011;72647;51.622;7.540;2023-09-12T05:55:34;48.03;;;20.38;;
82873;SDS011;72647;51.622;7.540;2023-09-12T05:59:36;39.47;;;19.15;;
82873;SDS011;72647;51.622;7.540;2023-09-12T06:01:37;41.72;;;19.92;;
82873;SDS011;72647;51.622;7.540;2023-09-12T06:05:37;44.97;;;20.83;;
82873;SDS011;72647;51.622;7.540;2023-09-12T06:09:40;89.97;;;24.55;;
82873;SDS011;72647;51.622;7.540;2023-09-12T06:13:41;53.90;;;20.03;;
82873;SDS011;72647;51.622;7.540;2023-09-12T06:17:41;48.85;;;20.48;;
82873;SDS011;72647;51.622;7.540;2023-09-12T06:21:42;33.87;;;17.70;;
82873;SDS011;72647;51.622;7.540;2023-09-12T06:23:43;36.22;;;18.88;;
82873;SDS011;72647;51.622;7.540;2023-09-12T06:27:44;40.45;;;18.52;;
82873;SDS011;72647;51.622;7.540;2023-09-12T06:31:44;36.80;;;17.95;;
82873;SDS011;72647;51.622;7.540;2023-09-12T06:35:48;43.15;;;19.23;;
82873;SDS011;72647;51.622;7.540;2023-09-12T06:37:48;38.00;;;19.95;;
82873;SDS011;72647;51.622;7.540;2023-09-12T06:41:48;51.87;;;20.03;;
82873;SDS011;72647;51.622;7.540;2023-09-12T06:43:48;46.42;;;19.80;;
82873;SDS011;72647;51.622;7.540;2023-09-12T06:47:50;37.22;;;18.23;;
82873;SDS011;72647;51.622;7.540;2023-09-12T06:51:51;47.03;;;19.40;;
82873;SDS011;72647;51.622;7.540;2023-09-12T06:53:51;40.35;;;19.73;;
82873;SDS011;72647;51.622;7.540;2023-09-12T06:55:52;29.45;;;16.25;;
82873;SDS011;72647;51.622;7.540;2023-09-12T06:59:52;29.57;;;15.07;;
82873;SDS011;72647;51.622;7.540;2023-09-12T07:01:52;26.03;;;14.63;;
82873;SDS011;72647;51.622;7.540;2023-09-12T07:05:54;27.38;;;14.80;;
82873;SDS011;72647;51.622;7.540;2023-09-12T07:09:55;30.08;;;15.18;;
82873;SDS011;72647;51.622;7.540;2023-09-12T07:13:55;43.10;;;19.77;;
82873;SDS011;72647;51.622;7.540;2023-09-12T07:17:55;40.67;;;20.30;;
82873;SDS011;72647;51.622;7.540;2023-09-12T07:21:57;42.05;;;21.10;;
82873;SDS011;72647;51.622;7.540;2023-09-12T07:25:57;59.27;;;23.50;;
82873;SDS011;72647;51.622;7.540;2023-09-12T07:29:58;47.40;;;23.53;;
82873;SDS011;72647;51.622;7.540;2023-09-12T07:33:58;43.80;;;24.07;;
82873;SDS011;72647;51.622;7.540;2023-09-12T07:37:59;62.35;;;26.63;;
82873;SDS011;72647;51.622;7.540;2023-09-12T07:42:00;39.53;;;21.67;;
82873;SDS011;72647;51.622;7.540;2023-09-12T07:46:04;60.83;;;26.98;;
82873;SDS011;72647;51.622;7.540;2023-09-12T07:50:05;48.97;;;23.77;;
82873;SDS011;72647;51.622;7.540;2023-09-12T07:52:06;58.22;;;26.45;;
82873;SDS011;72647;51.622;7.540;2023-09-12T07:56:08;53.75;;;24.58;;
82873;SDS011;72647;51.622;7.540;2023-09-12T07:58:08;48.72;;;24.90;;
82873;SDS011;72647;51.622;7.540;2023-09-12T08:02:09;55.70;;;25.85;;
82873;SDS011;72647;51.622;7.540;2023-09-12T08:04:12;61.80;;;27.33;;
82873;SDS011;72647;51.622;7.540;2023-09-12T08:06:14;59.53;;;26.80;;
82873;SDS011;72647;51.622;7.540;2023-09-12T08:10:15;68.10;;;27.03;;
82873;SDS011;72647;51.622;7.540;2023-09-12T08:12:15;91.33;;;33.37;;
82873;SDS011;72647;51.622;7.540;2023-09-12T08:16:15;216.93;;;35.30;;
82873;SDS011;72647;51.622;7.540;2023-09-12T08:20:17;157.32;;;35.13;;
82873;SDS011;72647;51.622;7.540;2023-09-12T08:24:18;81.63;;;29.08;;
82873;SDS011;72647;51.622;7.540;2023-09-12T08:28:19;66.63;;;25.45;;
82873;SDS011;72647;51.622;7.540;2023-09-12T08:32:20;90.67;;;28.07;;
82873;SDS011;72647;51.622;7.540;2023-09-12T08:36:20;81.00;;;26.00;;
82873;SDS011;72647;51.622;7.540;2023-09-12T08:40:20;50.70;;;20.97;;
82873;SDS011;72647;51.622;7.540;2023-09-12T08:42:21;45.20;;;21.45;;
82873;SDS011;72647;51.622;7.540;2023-09-12T08:46:21;35.53;;;17.30;;
82873;SDS011;72647;51.622;7.540;2023-09-12T08:48:22;30.85;;;17.50;;
82873;SDS011;72647;51.622;7.540;2023-09-12T08:52:24;23.48;;;15.10;;
82873;SDS011;72647;51.622;7.540;2023-09-12T08:54:24;25.25;;;13.93;;
82873;SDS011;72647;51.622;7.540;2023-09-12T08:58:25;20.85;;;13.32;;
82873;SDS011;72647;51.622;7.540;2023-09-12T09:00:25;17.45;;;12.00;;
82873;SDS011;72647;51.622;7.540;2023-09-12T09:02:27;17.42;;;11.73;;
82873;SDS011;72647;51.622;7.540;2023-09-12T09:04:28;20.63;;;13.07;;
82873;SDS011;72647;51.622;7.540;2023-09-12T09:06:30;16.80;;;10.80;;
82873;SDS011;72647;51.622;7.540;2023-09-12T09:08:32;20.52;;;13.23;;
82873;SDS011;72647;51.622;7.540;2023-09-12T09:10:33;17.23;;;11.25;;
82873;SDS011;72647;51.622;7.540;2023-09-12T09:12:37;16.08;;;10.30;;
82873;SDS011;72647;51.622;7.540;2023-09-12T09:14:39;17.75;;;11.10;;
82873;SDS011;72647;51.622;7.540;2023-09-12T09:16:39;24.30;;;13.27;;
82873;SDS011;72647;51.622;7.540;2023-09-12T09:20:52;20.83;;;11.85;;
82873;SDS011;72647;51.622;7.540;2023-09-12T09:23:10;17.20;;;10.37;;
82873;SDS011;72647;51.622;7.540;2023-09-12T09:25:11;12.30;;;8.73;;
82873;SDS011;72647;51.622;7.540;2023-09-12T09:27:22;13.35;;;9.77;;
82873;SDS011;72647;51.622;7.540;2023-09-12T09:29:32;18.63;;;12.75;;
82873;SDS011;72647;51.622;7.540;2023-09-12T09:31:46;14.10;;;10.10;;
82873;SDS011;72647;51.622;7.540;2023-09-12T09:33:49;17.73;;;10.32;;
82873;SDS011;72647;51.622;7.540;2023-09-12T09:35:51;15.13;;;10.70;;
82873;SDS011;72647;51.622;7.540;2023-09-12T09:38:03;18.95;;;12.15;;
82873;SDS011;72647;51.622;7.540;2023-09-12T09:40:06;14.55;;;11.52;;
82873;SDS011;72647;51.622;7.540;2023-09-12T09:42:09;16.17;;;10.80;;
82873;SDS011;72647;51.622;7.540;2023-09-12T09:44:10;15.88;;;10.30;;
82873;SDS011;72647;51.622;7.540;2023-09-12T09:46:20;15.23;;;11.27;;
82873;SDS011;72647;51.622;7.540;2023-09-12T09:48:20;14.98;;;9.82;;
82873;SDS011;72647;51.622;7.540;2023-09-12T09:50:21;15.90;;;10.60;;
82873;SDS011;72647;51.622;7.540;2023-09-12T09:52:25;17.67;;;11.88;;
82873;SDS011;72647;51.622;7.540;2023-09-12T09:54:25;15.25;;;12.07;;
82873;SDS011;72647;51.622;7.540;2023-09-12T09:56:26;16.83;;;10.90;;
82873;SDS011;72647;51.622;7.540;2023-09-12T09:58:26;12.40;;;9.75;;
82873;SDS011;72647;51.622;7.540;2023-09-12T10:00:28;12.82;;;10.35;;
82873;SDS011;72647;51.622;7.540;2023-09-12T10:02:29;11.60;;;9.30;;
82873;SDS011;72647;51.622;7.540;2023-09-12T10:04:31;12.32;;;9.85;;
82873;SDS011;72647;51.622;7.540;2023-09-12T10:06:32;12.95;;;9.90;;
82873;SDS011;72647;51.622;7.540;2023-09-12T10:08:34;11.05;;;9.93;;
82873;SDS011;72647;51.622;7.540;2023-09-12T10:10:35;11.10;;;10.00;;
82873;SDS011;72647;51.622;7.540;2023-09-12T10:12:42;10.38;;;9.07;;
82873;SDS011;72647;51.622;7.540;2023-09-12T10:14:44;11.52;;;8.40;;
82873;SDS011;72647;51.622;7.540;2023-09-12T10:16:46;9.20;;;8.30;;
82873;SDS011;72647;51.622;7.540;2023-09-12T10:18:53;10.35;;;8.57;;
82873;SDS011;72647;51.622;7.540;2023-09-12T10:21:07;11.00;;;7.70;;
82873;SDS011;72647;51.622;7.540;2023-09-12T10:23:20;9.00;;;8.10;;
82873;SDS011;72647;51.622;7.540;2023-09-12T10:25:23;8.55;;;7.68;;
82873;SDS011;72647;51.622;7.540;2023-09-12T10:27:26;10.50;;;8.93;;
82873;SDS011;72647;51.622;7.540;2023-09-12T10:29:28;9.23;;;8.27;;
82873;SDS011;72647;51.622;7.540;2023-09-12T10:31:30;8.88;;;7.95;;
82873;SDS011;72647;51.622;7.540;2023-09-12T10:33:33;8.00;;;7.20;;
82873;SDS011;72647;51.622;7.540;2023-09-12T10:38:02;7.53;;;6.80;;
82873;SDS011;72647;51.622;7.540;2023-09-12T10:40:07;8.75;;;7.45;;
82873;SDS011;72647;51.622;7.540;2023-09-12T10:42:11;10.68;;;7.30;;
82873;SDS011;72647;51.622;7.540;2023-09-12T10:44:21;8.10;;;7.30;;
82873;SDS011;72647;51.622;7.540;2023-09-12T10:46:21;8.43;;;7.05;;
82873;SDS011;72647;51.622;7.540;2023-09-12T10:48:23;8.57;;;7.68;;
82873;SDS011;72647;51.622;7.540;2023-09-12T10:50:24;8.05;;;7.25;;
82873;SDS011;72647;51.622;7.540;2023-09-12T10:52:35;10.30;;;8.73;;
82873;SDS011;72647;51.622;7.540;2023-09-12T11:01:23;7.82;;;7.03;;
82873;SDS011;72647;51.622;7.540;2023-09-12T11:05:50;7.32;;;6.53;;
82873;SDS011;72647;51.622;7.540;2023-09-12T11:07:56;8.57;;;7.68;;
82873;SDS011;72647;51.622;7.540;2023-09-12T11:12:35;9.02;;;7.28;;
82873;SDS011;72647;51.622;7.540;2023-09-12T11:14:36;7.35;;;6.65;;
82873;SDS011;72647;51.622;7.540;2023-09-12T11:16:37;7.15;;;6.55;;
82873;SDS011;72647;51.622;7.540;2023-09-12T11:19:24;7.68;;;6.97;;
82873;SDS011;72647;51.622;7.540;2023-09-12T11:21:00;5.57;;;5.18;;
82873;SDS011;72647;51.622;7.540;2023-09-12T11:23:09;4.78;;;4.38;;
82873;SDS011;72647;51.622;7.540;2023-09-12T11:25:31;6.10;;;5.55;;
82873;SDS011;72647;51.622;7.540;2023-09-12T11:27:44;6.00;;;5.50;;
82873;SDS011;72647;51.622;7.540;2023-09-12T11:29:45;6.97;;;6.22;;
82873;SDS011;72647;51.622;7.540;2023-09-12T11:31:53;6.20;;;5.65;;
82873;SDS011;72647;51.622;7.540;2023-09-12T11:33:53;6.45;;;5.85;;
82873;SDS011;72647;51.622;7.540;2023-09-12T11:35:56;6.85;;;6.07;;
82873;SDS011;72647;51.622;7.540;2023-09-12T11:38:02;6.68;;;5.97;;
82873;SDS011;72647;51.622;7.540;2023-09-12T11:40:45;6.30;;;5.70;;
82873;SDS011;72647;51.622;7.540;2023-09-12T11:42:26;5.28;;;4.78;;
82873;SDS011;72647;51.622;7.540;2023-09-12T11:44:27;7.78;;;4.78;;
82873;SDS011;72647;51.622;7.540;2023-09-12T11:46:29;5.05;;;4.60;;
82873;SDS011;72647;51.622;7.540;2023-09-12T11:48:30;4.38;;;4.07;;
82873;SDS011;72647;51.622;7.540;2023-09-12T11:50:31;5.47;;;4.97;;
82873;SDS011;72647;51.622;7.540;2023-09-12T11:52:35;4.75;;;4.35;;
82873;SDS011;72647;51.622;7.540;2023-09-12T11:54:39;4.88;;;4.47;;
82873;SDS011;72647;51.622;7.540;2023-09-12T11:56:40;4.75;;;4.35;;
82873;SDS011;72647;51.622;7.540;2023-09-12T11:58:40;4.65;;;4.25;;
82873;SDS011;72647;51.622;7.540;2023-09-12T12:00:44;4.63;;;3.80;;
82873;SDS011;72647;51.622;7.540;2023-09-12T12:02:47;3.63;;;3.33;;
82873;SDS011;72647;51.622;7.540;2023-09-12T12:04:47;4.38;;;3.67;;
82873;SDS011;72647;51.622;7.540;2023-09-12T12:06:48;4.72;;;4.32;;
82873;SDS011;72647;51.622;7.540;2023-09-12T12:08:48;3.92;;;3.60;;
82873;SDS011;72647;51.622;7.540;2023-09-12T12:10:52;4.72;;;3.85;;
82873;SDS011;72647;51.622;7.540;2023-09-12T12:12:53;4.43;;;3.70;;
82873;SDS011;72647;51.622;7.540;2023-09-12T12:14:56;4.97;;;3.60;;
82873;SDS011;72647;51.622;7.540;2023-09-12T12:16:56;4.00;;;3.60;;
82873;SDS011;72647;51.622;7.540;2023-09-12T12:19:05;4.25;;;3.40;;
82873;SDS011;72647;51.622;7.540;2023-09-12T12:21:05;4.32;;;3.45;;
82873;SDS011;72647;51.622;7.540;2023-09-12T12:23:06;4.28;;;3.88;;
82873;SDS011;72647;51.622;7.540;2023-09-12T12:25:07;4.43;;;3.83;;
82873;SDS011;72647;51.622;7.540;2023-09-12T12:27:08;4.18;;;3.78;;
82873;SDS011;72647;51.622;7.540;2023-09-12T12:29:10;5.35;;;4.93;;
82873;SDS011;72647;51.622;7.540;2023-09-12T12:31:11;4.05;;;3.15;;
82873;SDS011;72647;51.622;7.540;2023-09-12T12:33:11;4.20;;;3.80;;
82873;SDS011;72647;51.622;7.540;2023-09-12T12:35:19;3.63;;;3.22;;
82873;SDS011;72647;51.622;7.540;2023-09-12T12:37:20;3.80;;;3.50;;
82873;SDS011;72647;51.622;7.540;2023-09-12T12:39:20;3.97;;;3.67;;
82873;SDS011;72647;51.622;7.540;2023-09-12T12:41:24;3.70;;;3.28;;
82873;SDS011;72647;51.622;7.540;2023-09-12T12:43:26;3.30;;;3.00;;
82873;SDS011;72647;51.622;7.540;2023-09-12T12:45:27;4.93;;;3.58;;
82873;SDS011;72647;51.622;7.540;2023-09-12T12:47:27;4.15;;;3.70;;
82873;SDS011;72647;51.622;7.540;2023-09-12T12:49:28;4.40;;;3.33;;
82873;SDS011;72647;51.622;7.540;2023-09-12T12:51:29;4.30;;;3.90;;
82873;SDS011;72647;51.622;7.540;2023-09-12T12:53:37;3.67;;;3.38;;
82873;SDS011;72647;51.622;7.540;2023-09-12T12:55:37;3.58;;;3.28;;
82873;SDS011;72647;51.622;7.540;2023-09-12T12:57:39;4.22;;;3.85;;
82873;SDS011;72647;51.622;7.540;2023-09-12T12:59:44;3.75;;;3.42;;
82873;SDS011;72647;51.622;7.540;2023-09-12T13:01:44;4.55;;;3.35;;
82873;SDS011;72647;51.622;7.540;2023-09-12T13:03:44;3.90;;;3.60;;
82873;SDS011;72647;51.622;7.540;2023-09-12T13:05:45;4.75;;;4.35;;
82873;SDS011;72647;51.622;7.540;2023-09-12T13:07:45;4.57;;;4.20;;
82873;SDS011;72647;51.622;7.540;2023-09-12T13:09:45;4.65;;;4.20;;
82873;SDS011;72647;51.622;7.540;2023-09-12T13:11:48;4.07;;;3.67;;
82873;SDS011;72647;51.622;7.540;2023-09-12T13:13:48;3.50;;;3.10;;
82873;SDS011;72647;51.622;7.540;2023-09-12T13:15:49;4.13;;;3.30;;
82873;SDS011;72647;51.622;7.540;2023-09-12T13:17:49;5.35;;;3.67;;
82873;SDS011;72647;51.622;7.540;2023-09-12T13:19:50;5.28;;;4.50;;
82873;SDS011;72647;51.622;7.540;2023-09-12T13:21:50;4.37;;;3.53;;
82873;SDS011;72647;51.622;7.540;2023-09-12T13:23:50;4.72;;;4.32;;
82873;SDS011;72647;51.622;7.540;2023-09-12T13:25:51;4.28;;;3.88;;
82873;SDS011;72647;51.622;7.540;2023-09-12T13:27:51;3.85;;;3.55;;
82873;SDS011;72647;51.622;7.540;2023-09-12T13:29:51;5.32;;;3.75;;
82873;SDS011;72647;51.622;7.540;2023-09-12T13:31:52;4.32;;;3.92;;
82873;SDS011;72647;51.622;7.540;2023-09-12T13:33:54;3.95;;;3.42;;
82873;SDS011;72647;51.622;7.540;2023-09-12T13:35:55;4.13;;;3.53;;
82873;SDS011;72647;51.622;7.540;2023-09-12T13:37:55;4.30;;;3.45;;
82873;SDS011;72647;51.622;7.540;2023-09-12T13:39:55;4.40;;;3.83;;
82873;SDS011;72647;51.622;7.540;2023-09-12T13:41:56;4.53;;;3.60;;
82873;SDS011;72647;51.622;7.540;2023-09-12T13:43:59;4.20;;;3.65;;
82873;SDS011;72647;51.622;7.540;2023-09-12T13:46:00;4.27;;;3.60;;
82873;SDS011;72647;51.622;7.540;2023-09-12T13:48:00;3.50;;;3.20;;
82873;SDS011;72647;51.622;7.540;2023-09-12T13:50:02;4.03;;;3.33;;
82873;SDS011;72647;51.622;7.540;2023-09-12T13:52:02;5.03;;;3.20;;
82873;SDS011;72647;51.622;7.540;2023-09-12T13:54:02;4.15;;;3.75;;
82873;SDS011;72647;51.622;7.540;2023-09-12T13:56:03;4.20;;;3.40;;
82873;SDS011;72647;51.622;7.540;2023-09-12T13:58:04;5.07;;;3.55;;
82873;SDS011;72647;51.622;7.540;2023-09-12T14:00:04;3.00;;;2.58;;
82873;SDS011;72647;51.622;7.540;2023-09-12T14:02:05;3.83;;;3.25;;
82873;SDS011;72647;51.622;7.540;2023-09-12T14:04:05;4.38;;;3.88;;
82873;SDS011;72647;51.622;7.540;2023-09-12T14:06:05;3.88;;;3.03;;
82873;SDS011;72647;51.622;7.540;2023-09-12T14:08:06;4.47;;;3.80;;
82873;SDS011;72647;51.622;7.540;2023-09-12T14:10:06;4.07;;;3.58;;
82873;SDS011;72647;51.622;7.540;2023-09-12T14:12:07;5.18;;;4.05;;
82873;SDS011;72647;51.622;7.540;2023-09-12T14:14:08;4.97;;;4.07;;
82873;SDS011;72647;51.622;7.540;2023-09-12T14:16:09;4.05;;;3.65;;
82873;SDS011;72647;51.622;7.540;2023-09-12T14:18:09;4.28;;;3.88;;
82873;SDS011;72647;51.622;7.540;2023-09-12T14:20:10;4.75;;;4.15;;
82873;SDS011;72647;51.622;7.540;2023-09-12T14:22:10;4.20;;;3.80;;
82873;SDS011;72647;51.622;7.540;2023-09-12T14:24:10;4.10;;;3.60;;
82873;SDS011;72647;51.622;7.540;2023-09-12T14:26:11;3.85;;;3.55;;
82873;SDS011;72647;51.622;7.540;2023-09-12T14:28:12;3.72;;;3.40;;
82873;SDS011;72647;51.622;7.540;2023-09-12T14:30:12;4.03;;;3.63;;
82873;SDS011;72647;51.622;7.540;2023-09-12T14:32:18;3.38;;;3.10;;
82873;SDS011;72647;51.622;7.540;2023-09-12T14:34:18;3.88;;;3.55;;
82873;SDS011;72647;51.622;7.540;2023-09-12T14:36:19;3.80;;;3.50;;
82873;SDS011;72647;51.622;7.540;2023-09-12T14:38:19;5.07;;;3.47;;
82873;SDS011;72647;51.622;7.540;2023-09-12T14:40:20;3.53;;;3.20;;
82873;SDS011;72647;51.622;7.540;2023-09-12T14:42:20;3.60;;;3.30;;
82873;SDS011;72647;51.622;7.540;2023-09-12T14:44:21;3.67;;;3.38;;
82873;SDS011;72647;51.622;7.540;2023-09-12T14:46:23;3.90;;;3.33;;
82873;SDS011;72647;51.622;7.540;2023-09-12T14:48:24;4.50;;;4.10;;
82873;SDS011;72647;51.622;7.540;2023-09-12T14:53:08;4.03;;;3.50;;
82873;SDS011;72647;51.622;7.540;2023-09-12T14:55:08;4.10;;;3.15;;
82873;SDS011;72647;51.622;7.540;2023-09-12T14:57:09;4.57;;;3.75;;
82873;SDS011;72647;51.622;7.540;2023-09-12T14:59:09;4.68;;;3.50;;
82873;SDS011;72647;51.622;7.540;2023-09-12T15:01:10;4.28;;;3.88;;
82873;SDS011;72647;51.622;7.540;2023-09-12T15:03:10;4.78;;;4.32;;
82873;SDS011;72647;51.622;7.540;2023-09-12T15:05:10;4.15;;;3.85;;
82873;SDS011;72647;51.622;7.540;2023-09-12T15:07:11;5.57;;;4.25;;
82873;SDS011;72647;51.622;7.540;2023-09-12T15:09:11;4.18;;;3.63;;